Terminal Aerodrome Forecast
Issued by NWS Sioux Falls, SD

Home | Current Version | Previous Version | Text Only | Print | Product List | Glossary On
Versions: 1 2 3 4 5 6 7 8 9 10 11 12 13 14 15 16 17 18 19
261
FTUS43 KFSD 242320
TAFHON
TAF
KHON 242320Z 2500/2524 33011KT P6SM SCT025 SCT120
     FM250600 36012KT P6SM BKN025
     FM250900 36012KT P6SM OVC015
     FM251700 01018G24KT 6SM SHRA OVC020
     FM252100 36018G25KT 6SM -RA OVC015=

USA.gov is the U.S. government's official web portal to all federal, state and local government web resources and services.